sensor_id;sensor_type;location;lat;lon;timestamp;pressure;altitude;pressure_sealevel;temperature;humidity
31092;BME280;67728;53.122;12.776;2023-10-13T00:00:38;100493.72;;;10.02;100.00
31092;BME280;67728;53.122;12.776;2023-10-13T00:02:10;100496.28;;;10.05;100.00
31092;BME280;67728;53.122;12.776;2023-10-13T00:03:45;100494.59;;;10.03;100.00
31092;BME280;67728;53.122;12.776;2023-10-13T00:05:16;100491.91;;;10.07;100.00
31092;BME280;67728;53.122;12.776;2023-10-13T00:06:47;100488.41;;;10.10;100.00
31092;BME280;67728;53.122;12.776;2023-10-13T00:08:19;100491.91;;;10.07;100.00
31092;BME280;67728;53.122;12.776;2023-10-13T00:09:51;100490.19;;;10.08;100.00
31092;BME280;67728;53.122;12.776;2023-10-13T00:11:22;100485.81;;;10.10;100.00
31092;BME280;67728;53.122;12.776;2023-10-13T00:12:53;100496.13;;;10.16;100.00
31092;BME280;67728;53.122;12.776;2023-10-13T00:14:24;100496.03;;;10.20;100.00
31092;BME280;67728;53.122;12.776;2023-10-13T00:16:04;100499.38;;;10.26;100.00
31092;BME280;67728;53.122;12.776;2023-10-13T00:17:39;100504.44;;;10.33;100.00
31092;BME280;67728;53.122;12.776;2023-10-13T00:19:13;100501.97;;;10.26;100.00
31092;BME280;67728;53.122;12.776;2023-10-13T00:20:44;100512.44;;;10.19;100.00
31092;BME280;67728;53.122;12.776;2023-10-13T00:22:19;100505.69;;;10.09;100.00
31092;BME280;67728;53.122;12.776;2023-10-13T00:23:50;100510.88;;;10.09;100.00
31092;BME280;67728;53.122;12.776;2023-10-13T00:25:24;100505.69;;;10.09;100.00
31092;BME280;67728;53.122;12.776;2023-10-13T00:26:57;100498.72;;;10.11;100.00
31092;BME280;67728;53.122;12.776;2023-10-13T00:28:31;100497.91;;;10.12;100.00
31092;BME280;67728;53.122;12.776;2023-10-13T00:30:07;100503.09;;;10.09;100.00
31092;BME280;67728;53.122;12.776;2023-10-13T00:31:52;100509.13;;;10.13;100.00
31092;BME280;67728;53.122;12.776;2023-10-13T00:33:23;100507.34;;;10.15;100.00
31092;BME280;67728;53.122;12.776;2023-10-13T00:34:57;100512.56;;;10.13;100.00
31092;BME280;67728;53.122;12.776;2023-10-13T00:36:28;100508.22;;;10.14;100.00
31092;BME280;67728;53.122;12.776;2023-10-13T00:38:02;100493.53;;;10.16;100.00
31092;BME280;67728;53.122;12.776;2023-10-13T00:39:34;100493.53;;;10.16;100.00
31092;BME280;67728;53.122;12.776;2023-10-13T00:41:07;100490.91;;;10.17;100.00
31092;BME280;67728;53.122;12.776;2023-10-13T00:42:44;100501.25;;;10.19;100.00
31092;BME280;67728;53.122;12.776;2023-10-13T00:44:21;100497.75;;;10.22;100.00
31092;BME280;67728;53.122;12.776;2023-10-13T00:46:00;100492.47;;;10.25;100.00
31092;BME280;67728;53.122;12.776;2023-10-13T00:47:37;100490.69;;;10.28;100.00
31092;BME280;67728;53.122;12.776;2023-10-13T00:49:19;100487.19;;;10.31;100.00
31092;BME280;67728;53.122;12.776;2023-10-13T00:50:53;100486.38;;;10.29;100.00
31092;BME280;67728;53.122;12.776;2023-10-13T00:52:27;100474.28;;;10.29;100.00
31092;BME280;67728;53.122;12.776;2023-10-13T00:54:02;100469.97;;;10.28;100.00
31092;BME280;67728;53.122;12.776;2023-10-13T00:55:38;100475.09;;;10.33;100.00
31092;BME280;67728;53.122;12.776;2023-10-13T00:57:12;100474.22;;;10.32;100.00
31092;BME280;67728;53.122;12.776;2023-10-13T00:58:56;100480.22;;;10.34;100.00
31092;BME280;67728;53.122;12.776;2023-10-13T01:00:32;100481.81;;;10.43;100.00
31092;BME280;67728;53.122;12.776;2023-10-13T01:02:16;100482.69;;;10.42;100.00
31092;BME280;67728;53.122;12.776;2023-10-13T01:04:08;100485.25;;;10.43;100.00
31092;BME280;67728;53.122;12.776;2023-10-13T01:05:42;100476.63;;;10.43;100.00
31092;BME280;67728;53.122;12.776;2023-10-13T01:07:15;100476.63;;;10.41;100.00
31092;BME280;67728;53.122;12.776;2023-10-13T01:08:47;100473.13;;;10.45;100.00
31092;BME280;67728;53.122;12.776;2023-10-13T01:10:21;100475.72;;;10.45;100.00
31092;BME280;67728;53.122;12.776;2023-10-13T01:11:56;100467.03;;;10.46;100.00
31092;BME280;67728;53.122;12.776;2023-10-13T01:13:31;100468.78;;;10.46;100.00
31092;BME280;67728;53.122;12.776;2023-10-13T01:15:01;100466.19;;;10.46;100.00
31092;BME280;67728;53.122;12.776;2023-10-13T01:16:38;100469.66;;;10.45;100.00
31092;BME280;67728;53.122;12.776;2023-10-13T01:18:13;100461.88;;;10.45;100.00
31092;BME280;67728;53.122;12.776;2023-10-13T01:19:44;100456.59;;;10.49;100.00
31092;BME280;67728;53.122;12.776;2023-10-13T01:21:16;100459.13;;;10.54;100.00
31092;BME280;67728;53.122;12.776;2023-10-13T01:22:52;100459.94;;;10.54;100.00
31092;BME280;67728;53.122;12.776;2023-10-13T01:24:27;100461.66;;;10.55;100.00
31092;BME280;67728;53.122;12.776;2023-10-13T01:26:01;100456.44;;;10.58;100.00
31092;BME280;67728;53.122;12.776;2023-10-13T01:27:37;100467.66;;;10.59;100.00
31092;BME280;67728;53.122;12.776;2023-10-13T01:29:09;100461.66;;;10.57;100.00
31092;BME280;67728;53.122;12.776;2023-10-13T01:30:44;100461.63;;;10.58;100.00
31092;BME280;67728;53.122;12.776;2023-10-13T01:32:21;100459.88;;;10.59;100.00
31092;BME280;67728;53.122;12.776;2023-10-13T01:33:52;100470.19;;;10.62;100.00
31092;BME280;67728;53.122;12.776;2023-10-13T01:35:25;100459.81;;;10.62;100.00
31092;BME280;67728;53.122;12.776;2023-10-13T01:36:56;100462.38;;;10.63;100.00
31092;BME280;67728;53.122;12.776;2023-10-13T01:38:35;100462.31;;;10.66;100.00
31092;BME280;67728;53.122;12.776;2023-10-13T01:40:10;100465.78;;;10.67;100.00
31092;BME280;67728;53.122;12.776;2023-10-13T01:41:42;100460.59;;;10.67;100.00
31092;BME280;67728;53.122;12.776;2023-10-13T01:43:13;100460.50;;;10.71;100.00
31092;BME280;67728;53.122;12.776;2023-10-13T01:44:45;100452.00;;;10.65;100.00
31092;BME280;67728;53.122;12.776;2023-10-13T01:46:17;100457.06;;;10.69;100.00
31092;BME280;67728;53.122;12.776;2023-10-13T01:47:50;100453.63;;;10.69;100.00
31092;BME280;67728;53.122;12.776;2023-10-13T01:49:21;100446.66;;;10.71;100.00
31092;BME280;67728;53.122;12.776;2023-10-13T01:50:56;100456.16;;;10.72;100.00
31092;BME280;67728;53.122;12.776;2023-10-13T01:52:30;100445.78;;;10.72;100.00
31092;BME280;67728;53.122;12.776;2023-10-13T01:54:01;100447.41;;;10.76;100.00
31092;BME280;67728;53.122;12.776;2023-10-13T01:55:34;100442.28;;;10.74;100.00
31092;BME280;67728;53.122;12.776;2023-10-13T01:57:10;100440.53;;;10.75;100.00
31092;BME280;67728;53.122;12.776;2023-10-13T01:58:43;100437.88;;;10.78;100.00
31092;BME280;67728;53.122;12.776;2023-10-13T02:00:18;100436.97;;;10.80;100.00
31092;BME280;67728;53.122;12.776;2023-10-13T02:01:50;100436.06;;;10.81;100.00
31092;BME280;67728;53.122;12.776;2023-10-13T02:03:25;100432.81;;;11.12;100.00
31092;BME280;67728;53.122;12.776;2023-10-13T02:05:00;100430.44;;;11.39;100.00
31092;BME280;67728;53.122;12.776;2023-10-13T02:06:33;100435.88;;;11.66;100.00
31092;BME280;67728;53.122;12.776;2023-10-13T02:08:04;100425.25;;;11.76;100.00
31092;BME280;67728;53.122;12.776;2023-10-13T02:09:36;100434.69;;;11.80;100.00
31092;BME280;67728;53.122;12.776;2023-10-13T02:11:09;100428.63;;;11.80;100.00
31092;BME280;67728;53.122;12.776;2023-10-13T02:12:40;100430.16;;;11.87;100.00
31092;BME280;67728;53.122;12.776;2023-10-13T02:14:13;100424.91;;;11.90;100.00
31092;BME280;67728;53.122;12.776;2023-10-13T02:15:47;100413.63;;;11.89;100.00
31092;BME280;67728;53.122;12.776;2023-10-13T02:17:18;100412.63;;;11.95;100.00
31092;BME280;67728;53.122;12.776;2023-10-13T02:18:51;100415.16;;;11.98;100.00
31092;BME280;67728;53.122;12.776;2023-10-13T02:20:23;100415.94;;;12.02;100.00
31092;BME280;67728;53.122;12.776;2023-10-13T02:21:55;100402.94;;;12.02;100.00
31092;BME280;67728;53.122;12.776;2023-10-13T02:23:30;100408.06;;;12.05;100.00
31092;BME280;67728;53.122;12.776;2023-10-13T02:25:01;100408.91;;;12.05;100.00
31092;BME280;67728;53.122;12.776;2023-10-13T02:26:37;100391.59;;;12.06;100.00
31092;BME280;67728;53.122;12.776;2023-10-13T02:28:10;100399.31;;;12.07;100.00
31092;BME280;67728;53.122;12.776;2023-10-13T02:29:44;100392.31;;;12.11;100.00
31092;BME280;67728;53.122;12.776;2023-10-13T02:31:19;100388.94;;;12.07;100.00
31092;BME280;67728;53.122;12.776;2023-10-13T02:32:54;100387.13;;;12.11;100.00
31092;BME280;67728;53.122;12.776;2023-10-13T02:34:25;100382.75;;;12.11;100.00
31092;BME280;67728;53.122;12.776;2023-10-13T02:35:57;100381.00;;;12.12;100.00
31092;BME280;67728;53.122;12.776;2023-10-13T02:37:28;100386.97;;;12.15;100.00
31092;BME280;67728;53.122;12.776;2023-10-13T02:38:59;100386.97;;;12.15;100.00
31092;BME280;67728;53.122;12.776;2023-10-13T02:40:38;100348.84;;;11.83;100.00
31092;BME280;67728;53.122;12.776;2023-10-13T02:42:10;100391.53;;;12.07;100.00
31092;BME280;67728;53.122;12.776;2023-10-13T02:43:54;100389.41;;;12.21;100.00
31092;BME280;67728;53.122;12.776;2023-10-13T02:45:25;100379.31;;;12.11;100.00
31092;BME280;67728;53.122;12.776;2023-10-13T02:46:56;100379.38;;;12.08;100.00
31092;BME280;67728;53.122;12.776;2023-10-13T02:48:29;100379.34;;;12.09;100.00
31092;BME280;67728;53.122;12.776;2023-10-13T02:50:09;100369.00;;;12.06;100.00
31092;BME280;67728;53.122;12.776;2023-10-13T02:51:42;100368.69;;;12.18;100.00
31092;BME280;67728;53.122;12.776;2023-10-13T02:53:14;100369.41;;;12.23;100.00
31092;BME280;67728;53.122;12.776;2023-10-13T02:54:48;100363.50;;;12.18;100.00
31092;BME280;67728;53.122;12.776;2023-10-13T02:56:21;100366.25;;;12.12;100.00
31092;BME280;67728;53.122;12.776;2023-10-13T02:57:53;100359.34;;;12.11;100.00
31092;BME280;67728;53.122;12.776;2023-10-13T02:59:27;100357.28;;;12.24;100.00
31092;BME280;67728;53.122;12.776;2023-10-13T03:01:09;100357.38;;;12.19;100.00
31092;BME280;67728;53.122;12.776;2023-10-13T03:02:47;100359.72;;;12.30;100.00
31092;BME280;67728;53.122;12.776;2023-10-13T03:04:28;100349.34;;;12.28;100.00
31092;BME280;67728;53.122;12.776;2023-10-13T03:05:59;100348.41;;;12.31;100.00
31092;BME280;67728;53.122;12.776;2023-10-13T03:07:31;100351.94;;;12.28;100.00
31092;BME280;67728;53.122;12.776;2023-10-13T03:09:03;100357.94;;;12.30;100.00
31092;BME280;67728;53.122;12.776;2023-10-13T03:10:44;100354.69;;;12.22;100.00
31092;BME280;67728;53.122;12.776;2023-10-13T03:12:19;100348.75;;;12.19;100.00
31092;BME280;67728;53.122;12.776;2023-10-13T03:13:53;100353.75;;;12.25;100.00
31092;BME280;67728;53.122;12.776;2023-10-13T03:15:23;100345.06;;;12.26;100.00
31092;BME280;67728;53.122;12.776;2023-10-13T03:17:02;100342.53;;;12.24;100.00
31092;BME280;67728;53.122;12.776;2023-10-13T03:18:33;100346.88;;;12.24;100.00
31092;BME280;67728;53.122;12.776;2023-10-13T03:20:05;100345.13;;;12.24;100.00
31092;BME280;67728;53.122;12.776;2023-10-13T03:21:41;100338.13;;;12.26;100.00
31092;BME280;67728;53.122;12.776;2023-10-13T03:23:15;100324.31;;;12.24;100.00
31092;BME280;67728;53.122;12.776;2023-10-13T03:24:46;100332.88;;;12.28;100.00
31092;BME280;67728;53.122;12.776;2023-10-13T03:26:17;100319.69;;;12.35;100.00
31092;BME280;67728;53.122;12.776;2023-10-13T03:27:51;100320.41;;;12.39;100.00
31092;BME280;67728;53.122;12.776;2023-10-13T03:29:34;100319.44;;;12.43;100.00
31092;BME280;67728;53.122;12.776;2023-10-13T03:31:05;100322.06;;;12.41;100.00
31092;BME280;67728;53.122;12.776;2023-10-13T03:32:37;100321.38;;;12.36;100.00
31092;BME280;67728;53.122;12.776;2023-10-13T03:34:14;100323.25;;;12.31;100.00
31092;BME280;67728;53.122;12.776;2023-10-13T03:35:45;100315.34;;;12.34;100.00
31092;BME280;67728;53.122;12.776;2023-10-13T03:37:24;100316.00;;;12.42;100.00
31092;BME280;67728;53.122;12.776;2023-10-13T03:39:07;100314.16;;;12.46;100.00
31092;BME280;67728;53.122;12.776;2023-10-13T03:40:41;100307.38;;;12.40;100.00
31092;BME280;67728;53.122;12.776;2023-10-13T03:42:12;100297.94;;;12.38;100.00
31092;BME280;67728;53.122;12.776;2023-10-13T03:43:49;100301.50;;;12.34;100.00
31092;BME280;67728;53.122;12.776;2023-10-13T03:45:24;100294.50;;;12.36;100.00
31092;BME280;67728;53.122;12.776;2023-10-13T03:46:56;100289.88;;;12.45;100.00
31092;BME280;67728;53.122;12.776;2023-10-13T03:48:27;100282.31;;;12.38;100.00
31092;BME280;67728;53.122;12.776;2023-10-13T03:50:02;100287.53;;;12.38;100.00
31092;BME280;67728;53.122;12.776;2023-10-13T03:51:46;100294.47;;;12.37;100.00
31092;BME280;67728;53.122;12.776;2023-10-13T03:53:18;100289.13;;;12.42;100.00
31092;BME280;67728;53.122;12.776;2023-10-13T03:54:50;100291.78;;;12.40;100.00
31092;BME280;67728;53.122;12.776;2023-10-13T03:56:23;100295.25;;;12.39;100.00
31092;BME280;67728;53.122;12.776;2023-10-13T03:57:56;100289.25;;;12.37;100.00
31092;BME280;67728;53.122;12.776;2023-10-13T03:59:30;100291.00;;;12.37;100.00
31092;BME280;67728;53.122;12.776;2023-10-13T04:01:07;100288.34;;;12.38;100.00
31092;BME280;67728;53.122;12.776;2023-10-13T04:02:40;100281.38;;;12.40;100.00
31092;BME280;67728;53.122;12.776;2023-10-13T04:04:17;100282.09;;;12.45;100.00
31092;BME280;67728;53.122;12.776;2023-10-13T04:06:05;100273.44;;;12.45;100.00
31092;BME280;67728;53.122;12.776;2023-10-13T04:07:38;100277.59;;;12.50;100.00
31092;BME280;67728;53.122;12.776;2023-10-13T04:09:32;100267.19;;;12.50;100.00
31092;BME280;67728;53.122;12.776;2023-10-13T04:11:21;100267.38;;;12.44;100.00
31092;BME280;67728;53.122;12.776;2023-10-13T04:13:30;100259.56;;;12.44;100.00
31092;BME280;67728;53.122;12.776;2023-10-13T04:15:15;100258.59;;;12.48;100.00
31092;BME280;67728;53.122;12.776;2023-10-13T04:16:51;100262.75;;;12.54;100.00
31092;BME280;67728;53.122;12.776;2023-10-13T04:18:24;100266.25;;;12.53;100.00
31092;BME280;67728;53.122;12.776;2023-10-13T04:20:05;100267.97;;;12.54;100.00
31092;BME280;67728;53.122;12.776;2023-10-13T04:22:03;100262.69;;;12.55;100.00
31092;BME280;67728;53.122;12.776;2023-10-13T04:23:44;100255.78;;;12.54;100.00
31092;BME280;67728;53.122;12.776;2023-10-13T04:25:30;100257.56;;;12.52;100.00
31092;BME280;67728;53.122;12.776;2023-10-13T04:27:05;100251.59;;;12.50;100.00
31092;BME280;67728;53.122;12.776;2023-10-13T04:28:54;100255.78;;;12.54;100.00
31092;BME280;67728;53.122;12.776;2023-10-13T04:30:27;100250.44;;;12.59;100.00
31092;BME280;67728;53.122;12.776;2023-10-13T04:32:03;100250.53;;;12.56;100.00
31092;BME280;67728;53.122;12.776;2023-10-13T04:33:43;100242.59;;;12.60;100.00
31092;BME280;67728;53.122;12.776;2023-10-13T04:35:21;100249.59;;;12.58;100.00
31092;BME280;67728;53.122;12.776;2023-10-13T04:36:54;100240.59;;;12.69;100.00
31092;BME280;67728;53.122;12.776;2023-10-13T04:38:50;100237.97;;;12.70;100.00
31092;BME280;67728;53.122;12.776;2023-10-13T04:40:30;100239.84;;;12.65;100.00
31092;BME280;67728;53.122;12.776;2023-10-13T04:42:05;100236.41;;;12.65;100.00
31092;BME280;67728;53.122;12.776;2023-10-13T04:43:57;100233.72;;;12.66;100.00
31092;BME280;67728;53.122;12.776;2023-10-13T04:45:35;100230.28;;;12.66;100.00
31092;BME280;67728;53.122;12.776;2023-10-13T04:47:24;100228.38;;;12.71;100.00
31092;BME280;67728;53.122;12.776;2023-10-13T04:48:59;100222.97;;;12.77;100.00
31092;BME280;67728;53.122;12.776;2023-10-13T04:50:37;100220.34;;;12.78;100.00
31092;BME280;67728;53.122;12.776;2023-10-13T04:52:15;100226.28;;;12.82;100.00
31092;BME280;67728;53.122;12.776;2023-10-13T04:54:10;100222.28;;;12.72;100.00
31092;BME280;67728;53.122;12.776;2023-10-13T04:55:42;100208.22;;;12.77;100.00
31092;BME280;67728;53.122;12.776;2023-10-13T04:57:30;100204.75;;;12.77;100.00
31092;BME280;67728;53.122;12.776;2023-10-13T04:59:04;100196.94;;;12.78;100.00
31092;BME280;67728;53.122;12.776;2023-10-13T05:01:02;100198.75;;;12.75;100.00
31092;BME280;67728;53.122;12.776;2023-10-13T05:02:53;100192.69;;;12.74;100.00
31092;BME280;67728;53.122;12.776;2023-10-13T05:04:41;100196.06;;;12.78;100.00
31092;BME280;67728;53.122;12.776;2023-10-13T05:06:26;100193.56;;;12.75;100.00
31092;BME280;67728;53.122;12.776;2023-10-13T05:08:15;100193.28;;;12.84;100.00
31092;BME280;67728;53.122;12.776;2023-10-13T05:10:06;100185.47;;;12.84;100.00
31092;BME280;67728;53.122;12.776;2023-10-13T05:11:55;100189.94;;;12.79;100.00
31092;BME280;67728;53.122;12.776;2023-10-13T05:13:44;100197.72;;;12.80;100.00
31092;BME280;67728;53.122;12.776;2023-10-13T05:15:33;100187.16;;;12.85;100.00
31092;BME280;67728;53.122;12.776;2023-10-13T05:17:22;100186.06;;;12.92;100.00
31092;BME280;67728;53.122;12.776;2023-10-13T05:19:11;100191.41;;;12.87;100.00
31092;BME280;67728;53.122;12.776;2023-10-13T05:21:00;100186.06;;;12.92;100.00
31092;BME280;67728;53.122;12.776;2023-10-13T05:22:49;100192.31;;;12.86;100.00
31092;BME280;67728;53.122;12.776;2023-10-13T05:24:38;100187.72;;;12.94;100.00
31092;BME280;67728;53.122;12.776;2023-10-13T05:26:29;100194.38;;;13.03;100.00
31092;BME280;67728;53.122;12.776;2023-10-13T05:28:17;100197.88;;;13.00;100.00
31092;BME280;67728;53.122;12.776;2023-10-13T05:30:07;100195.41;;;12.97;100.00
31092;BME280;67728;53.122;12.776;2023-10-13T05:31:57;100195.41;;;12.97;100.00
31092;BME280;67728;53.122;12.776;2023-10-13T05:33:46;100185.00;;;12.97;100.00
31092;BME280;67728;53.122;12.776;2023-10-13T05:35:35;100185.59;;;13.05;100.00
31092;BME280;67728;53.122;12.776;2023-10-13T05:37:24;100175.31;;;13.01;100.00
31092;BME280;67728;53.122;12.776;2023-10-13T05:39:13;100163.94;;;13.03;100.00
31092;BME280;67728;53.122;12.776;2023-10-13T05:41:03;100157.94;;;13.01;100.00
31092;BME280;67728;53.122;12.776;2023-10-13T05:42:54;100151.84;;;13.02;100.00
31092;BME280;67728;53.122;12.776;2023-10-13T05:44:43;100160.38;;;13.07;100.00
31092;BME280;67728;53.122;12.776;2023-10-13T05:46:26;100153.25;;;13.12;100.00
31092;BME280;67728;53.122;12.776;2023-10-13T05:48:19;100150.59;;;13.14;100.00
31092;BME280;67728;53.122;12.776;2023-10-13T05:50:05;100157.44;;;13.16;100.00
31092;BME280;67728;53.122;12.776;2023-10-13T05:51:44;100158.28;;;13.17;100.00
31092;BME280;67728;53.122;12.776;2023-10-13T05:53:17;100158.25;;;13.18;100.00
31092;BME280;67728;53.122;12.776;2023-10-13T05:55:07;100152.19;;;13.18;100.00
31092;BME280;67728;53.122;12.776;2023-10-13T05:56:56;100156.16;;;13.28;100.00
31092;BME280;67728;53.122;12.776;2023-10-13T05:58:46;100156.25;;;13.27;100.00
31092;BME280;67728;53.122;12.776;2023-10-13T06:00:38;100147.75;;;13.22;100.00
31092;BME280;67728;53.122;12.776;2023-10-13T06:02:35;100141.47;;;13.27;100.00
31092;BME280;67728;53.122;12.776;2023-10-13T06:04:24;100144.66;;;13.35;100.00
31092;BME280;67728;53.122;12.776;2023-10-13T06:06:13;100143.72;;;13.36;100.00
31092;BME280;67728;53.122;12.776;2023-10-13T06:08:02;100149.50;;;13.44;100.00
31092;BME280;67728;53.122;12.776;2023-10-13T06:09:51;100143.28;;;13.48;100.00
31092;BME280;67728;53.122;12.776;2023-10-13T06:11:40;100153.75;;;13.47;100.00
31092;BME280;67728;53.122;12.776;2023-10-13T06:13:29;100144.97;;;13.49;100.00
31092;BME280;67728;53.122;12.776;2023-10-13T06:15:19;100148.25;;;13.54;100.00
31092;BME280;67728;53.122;12.776;2023-10-13T06:17:08;100149.94;;;13.57;100.00
31092;BME280;67728;53.122;12.776;2023-10-13T06:18:57;100140.13;;;13.63;100.00
31092;BME280;67728;53.122;12.776;2023-10-13T06:20:46;100144.34;;;13.66;100.00
31092;BME280;67728;53.122;12.776;2023-10-13T06:22:35;100139.09;;;13.67;100.00
31092;BME280;67728;53.122;12.776;2023-10-13T06:24:21;100136.25;;;13.73;100.00
31092;BME280;67728;53.122;12.776;2023-10-13T06:26:10;100138.59;;;13.81;100.00
31092;BME280;67728;53.122;12.776;2023-10-13T06:27:59;100136.03;;;13.79;100.00
31092;BME280;67728;53.122;12.776;2023-10-13T06:29:48;100140.44;;;13.77;100.00
31092;BME280;67728;53.122;12.776;2023-10-13T06:31:21;100141.19;;;13.81;100.00
31092;BME280;67728;53.122;12.776;2023-10-13T06:32:51;100133.00;;;13.90;100.00
31092;BME280;67728;53.122;12.776;2023-10-13T06:34:23;100130.34;;;13.92;100.00
31092;BME280;67728;53.122;12.776;2023-10-13T06:36:08;100142.25;;;13.99;100.00
31092;BME280;67728;53.122;12.776;2023-10-13T06:37:39;100137.03;;;13.99;100.00
31092;BME280;67728;53.122;12.776;2023-10-13T06:39:12;100129.19;;;13.99;100.00
31092;BME280;67728;53.122;12.776;2023-10-13T06:40:58;100129.88;;;14.04;100.00
31092;BME280;67728;53.122;12.776;2023-10-13T06:42:29;100131.38;;;14.09;100.00
31092;BME280;67728;53.122;12.776;2023-10-13T06:44:04;100133.03;;;14.12;100.00
31092;BME280;67728;53.122;12.776;2023-10-13T06:45:46;100138.19;;;14.13;100.00
31092;BME280;67728;53.122;12.776;2023-10-13T06:47:22;100132.06;;;14.14;100.00
31092;BME280;67728;53.122;12.776;2023-10-13T06:48:55;100129.34;;;14.17;100.00
31092;BME280;67728;53.122;12.776;2023-10-13T06:50:26;100121.50;;;14.17;100.00
31092;BME280;67728;53.122;12.776;2023-10-13T06:51:59;100122.91;;;14.26;100.00
31092;BME280;67728;53.122;12.776;2023-10-13T06:53:31;100119.28;;;14.30;100.00
31092;BME280;67728;53.122;12.776;2023-10-13T06:55:07;100122.72;;;14.30;100.00
31092;BME280;67728;53.122;12.776;2023-10-13T06:56:40;100107.81;;;14.34;100.00
31092;BME280;67728;53.122;12.776;2023-10-13T06:58:11;100114.47;;;14.41;100.00
31092;BME280;67728;53.122;12.776;2023-10-13T06:59:44;100117.78;;;14.46;100.00
31092;BME280;67728;53.122;12.776;2023-10-13T07:01:14;100115.81;;;14.51;100.00
31092;BME280;67728;53.122;12.776;2023-10-13T07:02:53;100114.91;;;14.52;100.00
31092;BME280;67728;53.122;12.776;2023-10-13T07:04:24;100114.78;;;14.55;100.00
31092;BME280;67728;53.122;12.776;2023-10-13T07:05:57;100117.34;;;14.57;100.00
31092;BME280;67728;53.122;12.776;2023-10-13T07:07:29;100114.72;;;14.57;100.00
31092;BME280;67728;53.122;12.776;2023-10-13T07:09:03;100107.72;;;14.57;100.00
31092;BME280;67728;53.122;12.776;2023-10-13T07:10:35;100108.53;;;14.59;100.00
31092;BME280;67728;53.122;12.776;2023-10-13T07:12:15;100113.63;;;14.62;100.00
31092;BME280;67728;53.122;12.776;2023-10-13T07:13:46;100116.16;;;14.64;100.00
31092;BME280;67728;53.122;12.776;2023-10-13T07:15:22;100112.56;;;14.66;100.00
31092;BME280;67728;53.122;12.776;2023-10-13T07:17:00;100117.75;;;14.68;100.00
31092;BME280;67728;53.122;12.776;2023-10-13T07:18:34;100116.91;;;14.67;100.00
31092;BME280;67728;53.122;12.776;2023-10-13T07:20:07;100109.09;;;14.66;100.00
31092;BME280;67728;53.122;12.776;2023-10-13T07:21:46;100121.31;;;14.65;100.00
31092;BME280;67728;53.122;12.776;2023-10-13T07:23:16;100122.13;;;14.67;100.00
31092;BME280;67728;53.122;12.776;2023-10-13T07:24:50;100121.06;;;14.71;100.00
31092;BME280;67728;53.122;12.776;2023-10-13T07:26:21;100110.38;;;14.77;100.00
31092;BME280;67728;53.122;12.776;2023-10-13T07:27:53;100106.00;;;14.78;100.00
31092;BME280;67728;53.122;12.776;2023-10-13T07:29:27;100108.28;;;14.85;100.00
31092;BME280;67728;53.122;12.776;2023-10-13T07:30:58;100110.03;;;14.85;100.00
31092;BME280;67728;53.122;12.776;2023-10-13T07:32:42;100108.28;;;14.85;100.00
31092;BME280;67728;53.122;12.776;2023-10-13T07:34:17;100101.75;;;14.95;100.00
31092;BME280;67728;53.122;12.776;2023-10-13T07:35:59;100102.06;;;15.08;100.00
31092;BME280;67728;53.122;12.776;2023-10-13T07:37:31;100103.56;;;15.14;100.00
31092;BME280;67728;53.122;12.776;2023-10-13T07:39:04;100099.69;;;15.22;100.00
31092;BME280;67728;53.122;12.776;2023-10-13T07:40:50;100104.09;;;15.22;100.00
31092;BME280;67728;53.122;12.776;2023-10-13T07:42:22;100104.94;;;15.41;100.00
31092;BME280;67728;53.122;12.776;2023-10-13T07:43:53;100098.47;;;15.49;100.00
31092;BME280;67728;53.122;12.776;2023-10-13T07:45:27;100109.44;;;15.57;100.00
31092;BME280;67728;53.122;12.776;2023-10-13T07:47:06;100107.28;;;15.67;100.00
31092;BME280;67728;53.122;12.776;2023-10-13T07:48:41;100099.69;;;15.80;100.00
31092;BME280;67728;53.122;12.776;2023-10-13T07:50:17;100096.94;;;15.83;100.00
31092;BME280;67728;53.122;12.776;2023-10-13T07:51:55;100086.63;;;15.80;100.00
31092;BME280;67728;53.122;12.776;2023-10-13T07:53:27;100083.16;;;15.79;100.00
31092;BME280;67728;53.122;12.776;2023-10-13T07:55:04;100090.31;;;15.76;100.00
31092;BME280;67728;53.122;12.776;2023-10-13T07:56:50;100089.09;;;15.64;100.00
31092;BME280;67728;53.122;12.776;2023-10-13T07:58:25;100084.38;;;15.53;100.00
31092;BME280;67728;53.122;12.776;2023-10-13T07:59:57;100077.91;;;15.42;100.00
31092;BME280;67728;53.122;12.776;2023-10-13T08:01:40;100081.28;;;15.44;100.00
31092;BME280;67728;53.122;12.776;2023-10-13T08:03:13;100084.44;;;15.52;100.00
31092;BME280;67728;53.122;12.776;2023-10-13T08:05:02;100081.00;;;15.51;100.00
31092;BME280;67728;53.122;12.776;2023-10-13T08:06:36;100076.59;;;15.52;100.00
31092;BME280;67728;53.122;12.776;2023-10-13T08:08:07;100071.56;;;15.47;100.00
31092;BME280;67728;53.122;12.776;2023-10-13T08:09:44;100074.19;;;15.47;100.00
31092;BME280;67728;53.122;12.776;2023-10-13T08:11:22;100072.44;;;15.48;100.00
31092;BME280;67728;53.122;12.776;2023-10-13T08:12:57;100075.59;;;15.54;100.00
31092;BME280;67728;53.122;12.776;2023-10-13T08:14:29;100066.34;;;15.47;100.00
31092;BME280;67728;53.122;12.776;2023-10-13T08:16:04;100061.06;;;15.49;100.00
31092;BME280;67728;53.122;12.776;2023-10-13T08:17:38;100065.44;;;15.48;100.00